sensor_id;sensor_type;location;lat;lon;timestamp;temperature;humidity
11320;DHT22;5715;48.234;14.320;2023-03-01T00:00:14;0.70;99.90
11320;DHT22;5715;48.234;14.320;2023-03-01T00:03:02;0.60;99.90
11320;DHT22;5715;48.234;14.320;2023-03-01T00:05:50;0.60;99.90
11320;DHT22;5715;48.234;14.320;2023-03-01T00:08:38;0.60;99.90
11320;DHT22;5715;48.234;14.320;2023-03-01T00:11:28;0.50;99.90
11320;DHT22;5715;48.234;14.320;2023-03-01T00:14:17;0.50;99.90
11320;DHT22;5715;48.234;14.320;2023-03-01T00:17:05;0.60;99.90
11320;DHT22;5715;48.234;14.320;2023-03-01T00:19:52;0.70;99.90
11320;DHT22;5715;48.234;14.320;2023-03-01T00:22:40;0.70;99.90
11320;DHT22;5715;48.234;14.320;2023-03-01T00:25:27;0.70;99.90
11320;DHT22;5715;48.234;14.320;2023-03-01T00:28:15;0.70;99.90
11320;DHT22;5715;48.234;14.320;2023-03-01T00:31:11;0.70;99.90
11320;DHT22;5715;48.234;14.320;2023-03-01T00:34:03;0.70;99.90
11320;DHT22;5715;48.234;14.320;2023-03-01T00:36:52;0.70;99.90
11320;DHT22;5715;48.234;14.320;2023-03-01T00:39:39;0.70;99.90
11320;DHT22;5715;48.234;14.320;2023-03-01T00:42:27;0.60;99.90
11320;DHT22;5715;48.234;14.320;2023-03-01T00:45:14;0.60;99.90
11320;DHT22;5715;48.234;14.320;2023-03-01T00:48:02;0.60;99.90
11320;DHT22;5715;48.234;14.320;2023-03-01T00:50:49;0.60;99.90
11320;DHT22;5715;48.234;14.320;2023-03-01T00:53:37;0.60;99.90
11320;DHT22;5715;48.234;14.320;2023-03-01T00:56:26;0.60;99.90
11320;DHT22;5715;48.234;14.320;2023-03-01T00:59:13;0.60;99.90
11320;DHT22;5715;48.234;14.320;2023-03-01T01:02:01;0.60;99.90
11320;DHT22;5715;48.234;14.320;2023-03-01T01:04:48;0.60;99.90
11320;DHT22;5715;48.234;14.320;2023-03-01T01:07:37;0.50;99.90
11320;DHT22;5715;48.234;14.320;2023-03-01T01:10:25;0.50;99.90
11320;DHT22;5715;48.234;14.320;2023-03-01T01:13:13;0.50;99.90
11320;DHT22;5715;48.234;14.320;2023-03-01T01:16:01;0.50;99.90
11320;DHT22;5715;48.234;14.320;2023-03-01T01:18:50;0.50;99.90
11320;DHT22;5715;48.234;14.320;2023-03-01T01:21:37;0.40;99.90
11320;DHT22;5715;48.234;14.320;2023-03-01T01:24:25;0.40;99.90
11320;DHT22;5715;48.234;14.320;2023-03-01T01:27:13;0.30;99.90
11320;DHT22;5715;48.234;14.320;2023-03-01T01:30:00;0.30;99.90
11320;DHT22;5715;48.234;14.320;2023-03-01T01:32:48;0.30;99.90
11320;DHT22;5715;48.234;14.320;2023-03-01T01:35:35;0.20;99.90
11320;DHT22;5715;48.234;14.320;2023-03-01T01:38:23;0.20;99.90
11320;DHT22;5715;48.234;14.320;2023-03-01T01:41:12;0.20;99.90
11320;DHT22;5715;48.234;14.320;2023-03-01T01:47:19;0.20;99.90
11320;DHT22;5715;48.234;14.320;2023-03-01T01:50:16;0.20;99.90
11320;DHT22;5715;48.234;14.320;2023-03-01T01:53:10;0.20;99.90
11320;DHT22;5715;48.234;14.320;2023-03-01T01:56:02;0.20;99.90
11320;DHT22;5715;48.234;14.320;2023-03-01T01:58:53;0.20;99.90
11320;DHT22;5715;48.234;14.320;2023-03-01T02:01:41;0.20;99.90
11320;DHT22;5715;48.234;14.320;2023-03-01T02:04:29;0.10;99.90
11320;DHT22;5715;48.234;14.320;2023-03-01T02:07:23;0.10;99.90
11320;DHT22;5715;48.234;14.320;2023-03-01T02:10:13;0.10;99.90
11320;DHT22;5715;48.234;14.320;2023-03-01T02:13:02;0.10;99.90
11320;DHT22;5715;48.234;14.320;2023-03-01T02:15:51;0.10;99.90
11320;DHT22;5715;48.234;14.320;2023-03-01T02:18:40;0.10;99.90
11320;DHT22;5715;48.234;14.320;2023-03-01T02:21:57;0.10;99.90
11320;DHT22;5715;48.234;14.320;2023-03-01T02:31:05;-0.10;99.90
11320;DHT22;5715;48.234;14.320;2023-03-01T02:34:16;-0.10;99.90
11320;DHT22;5715;48.234;14.320;2023-03-01T02:37:13;-0.20;99.90
11320;DHT22;5715;48.234;14.320;2023-03-01T02:40:06;-0.20;99.90
11320;DHT22;5715;48.234;14.320;2023-03-01T02:42:59;-0.30;99.90
11320;DHT22;5715;48.234;14.320;2023-03-01T02:45:51;-0.30;99.90
11320;DHT22;5715;48.234;14.320;2023-03-01T02:48:58;-0.30;99.90
11320;DHT22;5715;48.234;14.320;2023-03-01T02:52:23;-0.30;99.90
11320;DHT22;5715;48.234;14.320;2023-03-01T02:55:34;-0.40;99.90
11320;DHT22;5715;48.234;14.320;2023-03-01T02:58:22;-0.60;99.90
11320;DHT22;5715;48.234;14.320;2023-03-01T03:01:09;-0.60;99.90
11320;DHT22;5715;48.234;14.320;2023-03-01T03:03:57;-0.70;99.90
11320;DHT22;5715;48.234;14.320;2023-03-01T03:06:49;-0.60;99.90
11320;DHT22;5715;48.234;14.320;2023-03-01T03:09:38;-0.50;99.90
11320;DHT22;5715;48.234;14.320;2023-03-01T03:12:25;-0.50;99.90
11320;DHT22;5715;48.234;14.320;2023-03-01T03:15:13;-0.40;99.90
11320;DHT22;5715;48.234;14.320;2023-03-01T03:18:00;-0.40;99.90
11320;DHT22;5715;48.234;14.320;2023-03-01T03:20:48;-0.30;99.90
11320;DHT22;5715;48.234;14.320;2023-03-01T03:23:39;-0.30;99.90
11320;DHT22;5715;48.234;14.320;2023-03-01T03:26:27;-0.40;99.90
11320;DHT22;5715;48.234;14.320;2023-03-01T03:29:15;-0.30;99.90
11320;DHT22;5715;48.234;14.320;2023-03-01T03:32:03;-0.30;99.90
11320;DHT22;5715;48.234;14.320;2023-03-01T03:34:51;-0.20;99.90
11320;DHT22;5715;48.234;14.320;2023-03-01T03:37:40;-0.20;99.90
11320;DHT22;5715;48.234;14.320;2023-03-01T03:40:52;-0.20;99.90
11320;DHT22;5715;48.234;14.320;2023-03-01T03:43:50;-0.20;99.90
11320;DHT22;5715;48.234;14.320;2023-03-01T03:46:38;-0.20;99.90
11320;DHT22;5715;48.234;14.320;2023-03-01T03:49:25;-0.10;99.90
11320;DHT22;5715;48.234;14.320;2023-03-01T03:52:13;-0.10;99.90
11320;DHT22;5715;48.234;14.320;2023-03-01T03:55:00;-0.20;99.90
11320;DHT22;5715;48.234;14.320;2023-03-01T03:57:48;-0.20;99.90
11320;DHT22;5715;48.234;14.320;2023-03-01T04:00:41;-0.20;99.90
11320;DHT22;5715;48.234;14.320;2023-03-01T04:03:31;-0.20;99.90
11320;DHT22;5715;48.234;14.320;2023-03-01T04:06:19;-0.20;99.90
11320;DHT22;5715;48.234;14.320;2023-03-01T04:09:07;-0.20;99.90
11320;DHT22;5715;48.234;14.320;2023-03-01T04:11:55;-0.30;99.90
11320;DHT22;5715;48.234;14.320;2023-03-01T04:14:42;-0.30;99.90
11320;DHT22;5715;48.234;14.320;2023-03-01T04:17:30;-0.40;99.90
11320;DHT22;5715;48.234;14.320;2023-03-01T04:20:20;-0.50;99.90
11320;DHT22;5715;48.234;14.320;2023-03-01T04:23:14;-0.50;99.90
11320;DHT22;5715;48.234;14.320;2023-03-01T04:26:06;-0.40;99.90
11320;DHT22;5715;48.234;14.320;2023-03-01T04:28:54;-0.50;99.90
11320;DHT22;5715;48.234;14.320;2023-03-01T04:31:41;-0.50;99.90
11320;DHT22;5715;48.234;14.320;2023-03-01T04:34:29;-0.50;99.90
11320;DHT22;5715;48.234;14.320;2023-03-01T04:37:17;-0.50;99.90
11320;DHT22;5715;48.234;14.320;2023-03-01T04:40:05;-0.50;99.90
11320;DHT22;5715;48.234;14.320;2023-03-01T04:43:03;-0.50;99.90
11320;DHT22;5715;48.234;14.320;2023-03-01T04:45:51;-0.50;99.90
11320;DHT22;5715;48.234;14.320;2023-03-01T04:48:40;-0.50;99.90
11320;DHT22;5715;48.234;14.320;2023-03-01T04:51:28;-0.50;99.90
11320;DHT22;5715;48.234;14.320;2023-03-01T04:54:16;-0.60;99.90
11320;DHT22;5715;48.234;14.320;2023-03-01T04:57:04;-0.50;99.90
11320;DHT22;5715;48.234;14.320;2023-03-01T04:59:51;-0.60;99.90
11320;DHT22;5715;48.234;14.320;2023-03-01T05:02:39;-0.50;99.90
11320;DHT22;5715;48.234;14.320;2023-03-01T05:05:35;-0.50;99.90
11320;DHT22;5715;48.234;14.320;2023-03-01T05:08:24;-0.50;99.90
11320;DHT22;5715;48.234;14.320;2023-03-01T05:11:12;-0.80;99.90
11320;DHT22;5715;48.234;14.320;2023-03-01T05:14:00;-0.50;99.90
11320;DHT22;5715;48.234;14.320;2023-03-01T05:16:48;-0.60;99.90
11320;DHT22;5715;48.234;14.320;2023-03-01T05:19:35;-0.60;99.90
11320;DHT22;5715;48.234;14.320;2023-03-01T05:22:23;-0.50;99.90
11320;DHT22;5715;48.234;14.320;2023-03-01T05:25:10;-0.50;99.90
11320;DHT22;5715;48.234;14.320;2023-03-01T05:27:58;-0.60;99.90
11320;DHT22;5715;48.234;14.320;2023-03-01T05:30:51;-0.60;99.90
11320;DHT22;5715;48.234;14.320;2023-03-01T05:33:40;-0.60;99.90
11320;DHT22;5715;48.234;14.320;2023-03-01T05:36:28;-0.60;99.90
11320;DHT22;5715;48.234;14.320;2023-03-01T05:39:16;-0.70;99.90
11320;DHT22;5715;48.234;14.320;2023-03-01T05:42:03;-0.70;99.90
11320;DHT22;5715;48.234;14.320;2023-03-01T05:44:51;-0.60;99.90
11320;DHT22;5715;48.234;14.320;2023-03-01T05:47:43;-0.60;99.90
11320;DHT22;5715;48.234;14.320;2023-03-01T05:50:35;-0.60;99.90
11320;DHT22;5715;48.234;14.320;2023-03-01T05:53:24;-0.50;99.90
11320;DHT22;5715;48.234;14.320;2023-03-01T05:56:13;-0.50;99.90
11320;DHT22;5715;48.234;14.320;2023-03-01T05:59:02;-0.50;99.90
11320;DHT22;5715;48.234;14.320;2023-03-01T06:01:52;-0.50;99.90
11320;DHT22;5715;48.234;14.320;2023-03-01T06:04:40;-0.50;99.90
11320;DHT22;5715;48.234;14.320;2023-03-01T06:07:28;-0.50;99.90
11320;DHT22;5715;48.234;14.320;2023-03-01T06:10:17;-0.50;99.90
11320;DHT22;5715;48.234;14.320;2023-03-01T06:13:05;-0.40;99.90
11320;DHT22;5715;48.234;14.320;2023-03-01T06:15:53;-0.40;99.90
11320;DHT22;5715;48.234;14.320;2023-03-01T06:18:41;-0.40;99.90
11320;DHT22;5715;48.234;14.320;2023-03-01T06:21:29;-0.40;99.90
11320;DHT22;5715;48.234;14.320;2023-03-01T06:24:16;-0.30;99.90
11320;DHT22;5715;48.234;14.320;2023-03-01T06:27:04;-0.20;99.90
11320;DHT22;5715;48.234;14.320;2023-03-01T06:29:52;-0.20;99.90
11320;DHT22;5715;48.234;14.320;2023-03-01T06:32:40;-0.20;99.90
11320;DHT22;5715;48.234;14.320;2023-03-01T06:35:31;-0.10;99.90
11320;DHT22;5715;48.234;14.320;2023-03-01T06:38:19;-0.10;99.90
11320;DHT22;5715;48.234;14.320;2023-03-01T06:41:06;0.00;99.90
11320;DHT22;5715;48.234;14.320;2023-03-01T06:43:54;0.00;99.90
11320;DHT22;5715;48.234;14.320;2023-03-01T06:46:41;0.10;99.90
11320;DHT22;5715;48.234;14.320;2023-03-01T06:49:29;0.20;99.90
11320;DHT22;5715;48.234;14.320;2023-03-01T06:52:17;0.30;99.90
11320;DHT22;5715;48.234;14.320;2023-03-01T06:55:05;0.30;99.90
11320;DHT22;5715;48.234;14.320;2023-03-01T06:57:58;0.40;99.90
11320;DHT22;5715;48.234;14.320;2023-03-01T07:00:46;0.50;99.90
11320;DHT22;5715;48.234;14.320;2023-03-01T07:03:34;0.60;99.90
11320;DHT22;5715;48.234;14.320;2023-03-01T07:06:22;0.70;99.90
11320;DHT22;5715;48.234;14.320;2023-03-01T07:09:10;0.90;99.90
11320;DHT22;5715;48.234;14.320;2023-03-01T07:11:59;1.00;99.90
11320;DHT22;5715;48.234;14.320;2023-03-01T07:14:47;1.00;99.90
11320;DHT22;5715;48.234;14.320;2023-03-01T07:17:34;1.20;99.90
11320;DHT22;5715;48.234;14.320;2023-03-01T07:20:22;1.30;99.90
11320;DHT22;5715;48.234;14.320;2023-03-01T07:23:12;1.40;99.90
11320;DHT22;5715;48.234;14.320;2023-03-01T07:26:00;1.50;99.90
11320;DHT22;5715;48.234;14.320;2023-03-01T07:28:48;1.50;99.90
11320;DHT22;5715;48.234;14.320;2023-03-01T07:31:35;1.70;99.90
11320;DHT22;5715;48.234;14.320;2023-03-01T07:34:23;1.70;99.90
11320;DHT22;5715;48.234;14.320;2023-03-01T07:37:11;1.80;99.90
11320;DHT22;5715;48.234;14.320;2023-03-01T07:39:59;1.80;99.90
11320;DHT22;5715;48.234;14.320;2023-03-01T07:42:46;1.90;99.90
11320;DHT22;5715;48.234;14.320;2023-03-01T07:45:34;1.90;99.90
11320;DHT22;5715;48.234;14.320;2023-03-01T07:48:21;2.00;99.90
11320;DHT22;5715;48.234;14.320;2023-03-01T07:51:10;2.10;99.90
11320;DHT22;5715;48.234;14.320;2023-03-01T07:53:57;2.20;99.90
11320;DHT22;5715;48.234;14.320;2023-03-01T07:56:45;2.20;99.90
11320;DHT22;5715;48.234;14.320;2023-03-01T07:59:32;2.30;99.90
11320;DHT22;5715;48.234;14.320;2023-03-01T08:02:20;2.40;99.90
11320;DHT22;5715;48.234;14.320;2023-03-01T08:05:09;2.30;99.90
11320;DHT22;5715;48.234;14.320;2023-03-01T08:07:57;2.40;99.90
11320;DHT22;5715;48.234;14.320;2023-03-01T08:10:45;2.50;99.90
11320;DHT22;5715;48.234;14.320;2023-03-01T08:13:32;2.60;99.90
11320;DHT22;5715;48.234;14.320;2023-03-01T08:16:21;2.70;99.90
11320;DHT22;5715;48.234;14.320;2023-03-01T08:19:10;2.80;99.90
11320;DHT22;5715;48.234;14.320;2023-03-01T08:21:58;2.80;99.90
11320;DHT22;5715;48.234;14.320;2023-03-01T08:24:46;2.90;99.90
11320;DHT22;5715;48.234;14.320;2023-03-01T08:27:34;3.10;99.90
11320;DHT22;5715;48.234;14.320;2023-03-01T08:30:22;3.20;99.90
11320;DHT22;5715;48.234;14.320;2023-03-01T08:33:11;3.30;99.90
11320;DHT22;5715;48.234;14.320;2023-03-01T08:36:03;3.30;99.90
11320;DHT22;5715;48.234;14.320;2023-03-01T08:38:54;3.40;99.90
11320;DHT22;5715;48.234;14.320;2023-03-01T08:41:42;3.50;99.90
11320;DHT22;5715;48.234;14.320;2023-03-01T08:44:32;3.60;99.90
11320;DHT22;5715;48.234;14.320;2023-03-01T08:47:22;3.60;99.90
11320;DHT22;5715;48.234;14.320;2023-03-01T08:50:09;3.70;99.90
11320;DHT22;5715;48.234;14.320;2023-03-01T08:52:57;3.80;99.90
11320;DHT22;5715;48.234;14.320;2023-03-01T08:55:45;4.00;99.90
11320;DHT22;5715;48.234;14.320;2023-03-01T08:58:32;4.20;99.90
11320;DHT22;5715;48.234;14.320;2023-03-01T09:01:20;4.40;99.90
11320;DHT22;5715;48.234;14.320;2023-03-01T09:04:07;4.40;99.90
11320;DHT22;5715;48.234;14.320;2023-03-01T09:06:54;4.50;99.90
11320;DHT22;5715;48.234;14.320;2023-03-01T09:09:42;4.50;99.90
11320;DHT22;5715;48.234;14.320;2023-03-01T09:12:29;4.60;99.90
11320;DHT22;5715;48.234;14.320;2023-03-01T09:15:16;4.70;99.90
11320;DHT22;5715;48.234;14.320;2023-03-01T09:18:05;4.80;99.90
11320;DHT22;5715;48.234;14.320;2023-03-01T09:20:52;5.00;99.90
11320;DHT22;5715;48.234;14.320;2023-03-01T09:23:43;5.10;99.90
11320;DHT22;5715;48.234;14.320;2023-03-01T09:26:32;5.20;99.90
11320;DHT22;5715;48.234;14.320;2023-03-01T09:29:20;5.30;99.90
11320;DHT22;5715;48.234;14.320;2023-03-01T09:32:08;5.50;99.90
11320;DHT22;5715;48.234;14.320;2023-03-01T09:34:55;5.60;99.90
11320;DHT22;5715;48.234;14.320;2023-03-01T09:37:52;5.70;99.90
11320;DHT22;5715;48.234;14.320;2023-03-01T09:40:43;5.80;99.90
11320;DHT22;5715;48.234;14.320;2023-03-01T09:43:43;6.00;99.90
11320;DHT22;5715;48.234;14.320;2023-03-01T09:46:40;6.10;99.90
11320;DHT22;5715;48.234;14.320;2023-03-01T09:49:33;6.20;99.90
11320;DHT22;5715;48.234;14.320;2023-03-01T09:55:50;6.30;99.90
11320;DHT22;5715;48.234;14.320;2023-03-01T10:05:43;6.50;99.90
11320;DHT22;5715;48.234;14.320;2023-03-01T10:08:58;6.70;99.90
11320;DHT22;5715;48.234;14.320;2023-03-01T10:11:54;6.80;99.90
11320;DHT22;5715;48.234;14.320;2023-03-01T10:18:09;6.90;99.90
11320;DHT22;5715;48.234;14.320;2023-03-01T10:21:03;7.20;99.90
11320;DHT22;5715;48.234;14.320;2023-03-01T10:24:14;7.20;99.90
11320;DHT22;5715;48.234;14.320;2023-03-01T10:27:12;7.40;99.90
11320;DHT22;5715;48.234;14.320;2023-03-01T10:33:32;7.50;99.90
11320;DHT22;5715;48.234;14.320;2023-03-01T10:36:23;7.50;99.90
11320;DHT22;5715;48.234;14.320;2023-03-01T10:39:14;7.50;99.90
11320;DHT22;5715;48.234;14.320;2023-03-01T10:42:19;7.50;99.90
11320;DHT22;5715;48.234;14.320;2023-03-01T10:45:30;7.60;99.90
11320;DHT22;5715;48.234;14.320;2023-03-01T10:48:25;7.70;99.90
11320;DHT22;5715;48.234;14.320;2023-03-01T10:51:17;7.50;99.90
11320;DHT22;5715;48.234;14.320;2023-03-01T10:54:18;7.50;99.90
11320;DHT22;5715;48.234;14.320;2023-03-01T10:57:30;7.50;99.90
11320;DHT22;5715;48.234;14.320;2023-03-01T11:00:28;7.50;99.90
11320;DHT22;5715;48.234;14.320;2023-03-01T11:03:22;7.70;99.90
11320;DHT22;5715;48.234;14.320;2023-03-01T11:09:20;7.80;99.90
11320;DHT22;5715;48.234;14.320;2023-03-01T11:12:14;7.90;99.90
11320;DHT22;5715;48.234;14.320;2023-03-01T11:15:03;8.10;99.90
11320;DHT22;5715;48.234;14.320;2023-03-01T11:17:52;8.10;99.90
11320;DHT22;5715;48.234;14.320;2023-03-01T11:20:55;8.10;99.90
11320;DHT22;5715;48.234;14.320;2023-03-01T11:23:46;8.10;99.90
11320;DHT22;5715;48.234;14.320;2023-03-01T11:26:37;8.10;99.90
11320;DHT22;5715;48.234;14.320;2023-03-01T11:29:37;8.00;99.90
11320;DHT22;5715;48.234;14.320;2023-03-01T11:56:03;8.50;99.90
11320;DHT22;5715;48.234;14.320;2023-03-01T11:59:19;8.50;99.90
11320;DHT22;5715;48.234;14.320;2023-03-01T12:15:26;8.90;99.90
11320;DHT22;5715;48.234;14.320;2023-03-01T12:22:03;8.90;99.90
11320;DHT22;5715;48.234;14.320;2023-03-01T12:32:01;8.90;99.90
11320;DHT22;5715;48.234;14.320;2023-03-01T12:53:54;8.80;99.90
11320;DHT22;5715;48.234;14.320;2023-03-01T12:56:27;8.90;99.90
11320;DHT22;5715;48.234;14.320;2023-03-01T12:59:42;9.00;99.90
11320;DHT22;5715;48.234;14.320;2023-03-01T13:03:12;9.10;99.90
11320;DHT22;5715;48.234;14.320;2023-03-01T13:06:34;9.20;99.90
11320;DHT22;5715;48.234;14.320;2023-03-01T13:13:36;9.30;99.90
11320;DHT22;5715;48.234;14.320;2023-03-01T13:19:26;9.20;99.90
11320;DHT22;5715;48.234;14.320;2023-03-01T13:22:32;9.20;99.90
11320;DHT22;5715;48.234;14.320;2023-03-01T13:25:22;9.10;99.90
11320;DHT22;5715;48.234;14.320;2023-03-01T13:34:40;9.00;99.90
11320;DHT22;5715;48.234;14.320;2023-03-01T13:37:39;9.00;99.90
11320;DHT22;5715;48.234;14.320;2023-03-01T13:43:34;9.10;99.90
11320;DHT22;5715;48.234;14.320;2023-03-01T13:46:24;9.00;99.90
11320;DHT22;5715;48.234;14.320;2023-03-01T13:49:20;9.00;99.90
11320;DHT22;5715;48.234;14.320;2023-03-01T13:52:43;9.00;99.90
11320;DHT22;5715;48.234;14.320;2023-03-01T13:55:45;9.20;99.90
11320;DHT22;5715;48.234;14.320;2023-03-01T13:58:52;9.10;99.90
11320;DHT22;5715;48.234;14.320;2023-03-01T14:01:57;9.00;99.90
11320;DHT22;5715;48.234;14.320;2023-03-01T14:04:57;9.00;99.90
11320;DHT22;5715;48.234;14.320;2023-03-01T14:07:51;9.10;99.90
11320;DHT22;5715;48.234;14.320;2023-03-01T14:17:21;9.10;99.90
11320;DHT22;5715;48.234;14.320;2023-03-01T14:20:23;9.10;99.90
11320;DHT22;5715;48.234;14.320;2023-03-01T14:23:21;9.20;99.90
11320;DHT22;5715;48.234;14.320;2023-03-01T14:26:11;9.20;99.90
11320;DHT22;5715;48.234;14.320;2023-03-01T14:28:59;9.20;99.90
11320;DHT22;5715;48.234;14.320;2023-03-01T14:31:46;9.20;99.90
11320;DHT22;5715;48.234;14.320;2023-03-01T14:34:47;9.20;99.90
11320;DHT22;5715;48.234;14.320;2023-03-01T14:37:36;9.20;99.90
11320;DHT22;5715;48.234;14.320;2023-03-01T14:43:23;9.10;99.90
11320;DHT22;5715;48.234;14.320;2023-03-01T14:46:35;9.10;99.90
11320;DHT22;5715;48.234;14.320;2023-03-01T14:49:30;9.20;99.90
11320;DHT22;5715;48.234;14.320;2023-03-01T14:52:25;9.20;99.90
11320;DHT22;5715;48.234;14.320;2023-03-01T14:55:32;9.20;99.90
11320;DHT22;5715;48.234;14.320;2023-03-01T14:58:24;9.20;99.90
11320;DHT22;5715;48.234;14.320;2023-03-01T15:01:15;9.10;99.90
11320;DHT22;5715;48.234;14.320;2023-03-01T15:04:10;9.10;99.90
11320;DHT22;5715;48.234;14.320;2023-03-01T15:06:59;9.10;99.90
11320;DHT22;5715;48.234;14.320;2023-03-01T15:09:52;9.10;99.90
11320;DHT22;5715;48.234;14.320;2023-03-01T15:12:41;9.10;99.90
11320;DHT22;5715;48.234;14.320;2023-03-01T15:18:25;9.00;99.90
11320;DHT22;5715;48.234;14.320;2023-03-01T15:24:17;9.10;99.90
11320;DHT22;5715;48.234;14.320;2023-03-01T15:27:17;9.10;99.90
11320;DHT22;5715;48.234;14.320;2023-03-01T15:30:18;9.10;99.90
11320;DHT22;5715;48.234;14.320;2023-03-01T15:36:46;9.00;99.90
11320;DHT22;5715;48.234;14.320;2023-03-01T15:42:40;8.90;99.90
11320;DHT22;5715;48.234;14.320;2023-03-01T15:45:29;8.80;99.90
11320;DHT22;5715;48.234;14.320;2023-03-01T15:48:19;8.70;99.90
11320;DHT22;5715;48.234;14.320;2023-03-01T15:51:13;8.70;99.90
11320;DHT22;5715;48.234;14.320;2023-03-01T15:54:22;8.60;99.90
11320;DHT22;5715;48.234;14.320;2023-03-01T15:57:15;8.50;99.90
11320;DHT22;5715;48.234;14.320;2023-03-01T16:00:03;8.40;99.90
11320;DHT22;5715;48.234;14.320;2023-03-01T16:02:58;8.30;99.90
11320;DHT22;5715;48.234;14.320;2023-03-01T16:05:46;8.30;99.90
11320;DHT22;5715;48.234;14.320;2023-03-01T16:08:37;8.20;99.90
11320;DHT22;5715;48.234;14.320;2023-03-01T16:11:26;8.10;99.90
11320;DHT22;5715;48.234;14.320;2023-03-01T16:14:17;8.00;99.90
11320;DHT22;5715;48.234;14.320;2023-03-01T16:17:05;7.90;99.90
11320;DHT22;5715;48.234;14.320;2023-03-01T16:19:55;7.80;99.90
11320;DHT22;5715;48.234;14.320;2023-03-01T16:22:48;7.60;99.90
11320;DHT22;5715;48.234;14.320;2023-03-01T16:25:39;7.50;99.90
11320;DHT22;5715;48.234;14.320;2023-03-01T16:28:26;7.40;99.90
11320;DHT22;5715;48.234;14.320;2023-03-01T16:31:19;7.40;99.90
11320;DHT22;5715;48.234;14.320;2023-03-01T16:34:08;7.30;99.90
11320;DHT22;5715;48.234;14.320;2023-03-01T16:36:55;7.20;99.90
11320;DHT22;5715;48.234;14.320;2023-03-01T16:39:43;7.20;99.90
11320;DHT22;5715;48.234;14.320;2023-03-01T16:42:34;7.10;99.90
11320;DHT22;5715;48.234;14.320;2023-03-01T16:45:22;7.00;99.90
11320;DHT22;5715;48.234;14.320;2023-03-01T16:48:11;6.90;99.90
11320;DHT22;5715;48.234;14.320;2023-03-01T16:51:02;6.90;99.90
11320;DHT22;5715;48.234;14.320;2023-03-01T16:53:51;6.80;99.90
11320;DHT22;5715;48.234;14.320;2023-03-01T16:56:38;6.80;99.90
11320;DHT22;5715;48.234;14.320;2023-03-01T16:59:29;6.70;99.90
11320;DHT22;5715;48.234;14.320;2023-03-01T17:02:16;6.70;99.90
11320;DHT22;5715;48.234;14.320;2023-03-01T17:05:07;6.60;99.90
11320;DHT22;5715;48.234;14.320;2023-03-01T17:07:57;6.50;99.90
11320;DHT22;5715;48.234;14.320;2023-03-01T17:10:46;6.50;99.90
11320;DHT22;5715;48.234;14.320;2023-03-01T17:13:36;6.50;99.90
11320;DHT22;5715;48.234;14.320;2023-03-01T17:16:27;6.50;99.90
11320;DHT22;5715;48.234;14.320;2023-03-01T17:19:18;6.40;99.90
11320;DHT22;5715;48.234;14.320;2023-03-01T17:22:08;6.40;99.90
11320;DHT22;5715;48.234;14.320;2023-03-01T17:24:57;6.30;99.90
11320;DHT22;5715;48.234;14.320;2023-03-01T17:27:45;6.10;99.90
11320;DHT22;5715;48.234;14.320;2023-03-01T17:30:33;6.10;99.90
11320;DHT22;5715;48.234;14.320;2023-03-01T17:33:20;6.00;99.90
11320;DHT22;5715;48.234;14.320;2023-03-01T17:36:08;5.90;99.90
11320;DHT22;5715;48.234;14.320;2023-03-01T17:38:56;5.80;99.90
11320;DHT22;5715;48.234;14.320;2023-03-01T17:41:43;5.80;99.90
11320;DHT22;5715;48.234;14.320;2023-03-01T17:44:32;5.70;99.90
11320;DHT22;5715;48.234;14.320;2023-03-01T17:47:22;5.70;99.90
11320;DHT22;5715;48.234;14.320;2023-03-01T17:50:10;5.70;99.90
11320;DHT22;5715;48.234;14.320;2023-03-01T17:52:58;5.60;99.90
11320;DHT22;5715;48.234;14.320;2023-03-01T17:55:47;5.60;99.90
11320;DHT22;5715;48.234;14.320;2023-03-01T17:58:40;5.50;99.90
11320;DHT22;5715;48.234;14.320;2023-03-01T18:01:27;5.40;99.90
11320;DHT22;5715;48.234;14.320;2023-03-01T18:04:15;5.30;99.90
11320;DHT22;5715;48.234;14.320;2023-03-01T18:07:04;5.30;99.90
11320;DHT22;5715;48.234;14.320;2023-03-01T18:09:51;5.20;99.90
11320;DHT22;5715;48.234;14.320;2023-03-01T18:12:39;5.10;99.90
11320;DHT22;5715;48.234;14.320;2023-03-01T18:15:27;5.00;99.90
11320;DHT22;5715;48.234;14.320;2023-03-01T18:18:15;4.90;99.90
11320;DHT22;5715;48.234;14.320;2023-03-01T18:21:03;4.90;99.90
11320;DHT22;5715;48.234;14.320;2023-03-01T18:23:51;4.80;99.90
11320;DHT22;5715;48.234;14.320;2023-03-01T18:26:40;4.70;99.90
11320;DHT22;5715;48.234;14.320;2023-03-01T18:29:28;4.70;99.90
11320;DHT22;5715;48.234;14.320;2023-03-01T18:32:15;4.70;99.90
11320;DHT22;5715;48.234;14.320;2023-03-01T18:35:04;4.70;99.90
11320;DHT22;5715;48.234;14.320;2023-03-01T18:37:53;4.60;99.90
11320;DHT22;5715;48.234;14.320;2023-03-01T18:40:43;4.60;99.90
11320;DHT22;5715;48.234;14.320;2023-03-01T18:43:31;4.60;99.90
11320;DHT22;5715;48.234;14.320;2023-03-01T18:46:19;4.60;99.90
11320;DHT22;5715;48.234;14.320;2023-03-01T18:49:07;4.60;99.90
11320;DHT22;5715;48.234;14.320;2023-03-01T18:51:55;4.60;99.90
11320;DHT22;5715;48.234;14.320;2023-03-01T18:54:43;4.60;99.90
11320;DHT22;5715;48.234;14.320;2023-03-01T18:57:31;4.60;99.90
11320;DHT22;5715;48.234;14.320;2023-03-01T19:00:19;4.60;99.90
11320;DHT22;5715;48.234;14.320;2023-03-01T19:03:09;4.60;99.90
11320;DHT22;5715;48.234;14.320;2023-03-01T19:05:57;4.50;99.90
11320;DHT22;5715;48.234;14.320;2023-03-01T19:08:47;4.50;99.90
11320;DHT22;5715;48.234;14.320;2023-03-01T19:11:36;4.40;99.90
11320;DHT22;5715;48.234;14.320;2023-03-01T19:14:24;4.30;99.90
11320;DHT22;5715;48.234;14.320;2023-03-01T19:17:12;4.40;99.90
11320;DHT22;5715;48.234;14.320;2023-03-01T19:19:59;4.30;99.90
11320;DHT22;5715;48.234;14.320;2023-03-01T19:22:47;4.30;99.90
11320;DHT22;5715;48.234;14.320;2023-03-01T19:25:35;4.20;99.90
11320;DHT22;5715;48.234;14.320;2023-03-01T19:28:22;4.10;99.90
11320;DHT22;5715;48.234;14.320;2023-03-01T19:31:16;4.10;99.90
11320;DHT22;5715;48.234;14.320;2023-03-01T19:34:06;4.10;99.90
11320;DHT22;5715;48.234;14.320;2023-03-01T19:36:58;4.20;99.90
11320;DHT22;5715;48.234;14.320;2023-03-01T19:39:46;4.30;99.90
11320;DHT22;5715;48.234;14.320;2023-03-01T19:42:34;4.30;99.90
11320;DHT22;5715;48.234;14.320;2023-03-01T19:45:22;4.30;99.90
11320;DHT22;5715;48.234;14.320;2023-03-01T19:48:22;4.30;99.90
11320;DHT22;5715;48.234;14.320;2023-03-01T19:51:10;4.20;99.90
11320;DHT22;5715;48.234;14.320;2023-03-01T19:53:59;4.30;99.90
11320;DHT22;5715;48.234;14.320;2023-03-01T19:56:50;4.20;99.90
11320;DHT22;5715;48.234;14.320;2023-03-01T19:59:37;4.20;99.90
11320;DHT22;5715;48.234;14.320;2023-03-01T20:02:25;4.20;99.90
11320;DHT22;5715;48.234;14.320;2023-03-01T20:05:15;4.10;99.90
11320;DHT22;5715;48.234;14.320;2023-03-01T20:08:03;4.10;99.90
11320;DHT22;5715;48.234;14.320;2023-03-01T20:10:51;4.10;99.90
11320;DHT22;5715;48.234;14.320;2023-03-01T20:13:39;4.00;99.90
11320;DHT22;5715;48.234;14.320;2023-03-01T20:16:28;3.90;99.90
11320;DHT22;5715;48.234;14.320;2023-03-01T20:19:16;3.80;99.90
11320;DHT22;5715;48.234;14.320;2023-03-01T20:22:04;3.70;99.90
11320;DHT22;5715;48.234;14.320;2023-03-01T20:24:51;3.70;99.90
11320;DHT22;5715;48.234;14.320;2023-03-01T20:27:39;3.70;99.90